sensor_id;sensor_type;location;lat;lon;timestamp;pressure;altitude;pressure_sealevel;temperature;humidity
23170;BME280;11753;43.144;24.714;2023-04-22T00:00:01;99268.09;;;11.65;100.00
23170;BME280;11753;43.144;24.714;2023-04-22T00:01:02;99274.66;;;11.61;100.00
23170;BME280;11753;43.144;24.714;2023-04-22T00:02:03;99268.72;;;11.67;100.00
23170;BME280;11753;43.144;24.714;2023-04-22T00:03:04;99276.63;;;11.75;100.00
23170;BME280;11753;43.144;24.714;2023-04-22T00:04:05;99270.84;;;11.71;100.00
23170;BME280;11753;43.144;24.714;2023-04-22T00:05:07;99263.91;;;11.70;100.00
23170;BME280;11753;43.144;24.714;2023-04-22T00:06:08;99270.38;;;11.68;100.00
23170;BME280;11753;43.144;24.714;2023-04-22T00:07:09;99264.59;;;11.64;100.00
23170;BME280;11753;43.144;24.714;2023-04-22T00:08:10;99275.00;;;11.57;100.00
23170;BME280;11753;43.144;24.714;2023-04-22T00:09:11;99277.13;;;11.62;100.00
23170;BME280;11753;43.144;24.714;2023-04-22T00:10:12;99278.16;;;11.53;100.00
23170;BME280;11753;43.144;24.714;2023-04-22T00:11:13;99283.25;;;11.54;100.00
23170;BME280;11753;43.144;24.714;2023-04-22T00:12:15;99275.34;;;11.54;100.00
23170;BME280;11753;43.144;24.714;2023-04-22T00:13:16;99275.34;;;11.46;100.00
23170;BME280;11753;43.144;24.714;2023-04-22T00:14:17;99278.97;;;11.53;100.00
23170;BME280;11753;43.144;24.714;2023-04-22T00:15:18;99277.00;;;11.47;100.00
23170;BME280;11753;43.144;24.714;2023-04-22T00:16:20;99268.63;;;11.44;100.00
23170;BME280;11753;43.144;24.714;2023-04-22T00:17:21;99268.44;;;11.45;100.00
23170;BME280;11753;43.144;24.714;2023-04-22T00:18:22;99271.06;;;11.45;100.00
23170;BME280;11753;43.144;24.714;2023-04-22T00:19:23;99274.88;;;11.51;100.00
23170;BME280;11753;43.144;24.714;2023-04-22T00:20:23;99278.97;;;11.53;100.00
23170;BME280;11753;43.144;24.714;2023-04-22T00:21:27;99273.69;;;11.53;100.00
23170;BME280;11753;43.144;24.714;2023-04-22T00:22:28;99275.97;;;11.56;100.00
23170;BME280;11753;43.144;24.714;2023-04-22T00:23:29;99274.66;;;11.61;100.00
23170;BME280;11753;43.144;24.714;2023-04-22T00:24:31;99276.94;;;11.64;100.00
23170;BME280;11753;43.144;24.714;2023-04-22T00:25:32;99266.91;;;11.67;100.00
23170;BME280;11753;43.144;24.714;2023-04-22T00:26:33;99274.00;;;11.67;100.00
23170;BME280;11753;43.144;24.714;2023-04-22T00:27:34;99276.00;;;11.65;100.00
23170;BME280;11753;43.144;24.714;2023-04-22T00:28:35;99277.78;;;11.64;100.00
23170;BME280;11753;43.144;24.714;2023-04-22T00:29:36;99270.38;;;11.68;100.00
23170;BME280;11753;43.144;24.714;2023-04-22T00:30:37;99273.03;;;11.60;100.00
23170;BME280;11753;43.144;24.714;2023-04-22T00:31:37;99269.75;;;11.57;100.00
23170;BME280;11753;43.144;24.714;2023-04-22T00:32:38;99264.13;;;11.61;100.00
23170;BME280;11753;43.144;24.714;2023-04-22T00:33:39;99271.38;;;11.67;100.00
23170;BME280;11753;43.144;24.714;2023-04-22T00:34:40;99274.03;;;11.58;100.00
23170;BME280;11753;43.144;24.714;2023-04-22T00:35:41;99268.41;;;11.53;100.00
23170;BME280;11753;43.144;24.714;2023-04-22T00:36:42;99268.41;;;11.53;100.00
23170;BME280;11753;43.144;24.714;2023-04-22T00:37:43;99262.81;;;11.56;100.00
23170;BME280;11753;43.144;24.714;2023-04-22T00:38:48;99268.06;;;11.56;100.00
23170;BME280;11753;43.144;24.714;2023-04-22T00:39:50;99273.84;;;11.60;100.00
23170;BME280;11753;43.144;24.714;2023-04-22T00:40:50;99270.38;;;11.60;100.00
23170;BME280;11753;43.144;24.714;2023-04-22T00:41:52;99272.22;;;11.51;100.00
23170;BME280;11753;43.144;24.714;2023-04-22T00:42:54;99274.03;;;11.50;100.00
23170;BME280;11753;43.144;24.714;2023-04-22T00:43:54;99272.72;;;11.38;100.00
23170;BME280;11753;43.144;24.714;2023-04-22T00:44:55;99268.59;;;11.36;100.00
23170;BME280;11753;43.144;24.714;2023-04-22T00:45:56;99268.47;;;11.37;100.00
23170;BME280;11753;43.144;24.714;2023-04-22T00:46:58;99263.81;;;11.47;100.00
23170;BME280;11753;43.144;24.714;2023-04-22T00:47:59;99268.09;;;11.48;100.00
23170;BME280;11753;43.144;24.714;2023-04-22T00:49:01;99272.88;;;11.45;100.00
23170;BME280;11753;43.144;24.714;2023-04-22T00:50:02;99266.44;;;11.47;100.00
23170;BME280;11753;43.144;24.714;2023-04-22T00:51:04;99273.06;;;11.43;100.00
23170;BME280;11753;43.144;24.714;2023-04-22T00:52:05;99270.56;;;11.42;100.00
23170;BME280;11753;43.144;24.714;2023-04-22T00:53:06;99274.34;;;11.47;100.00
23170;BME280;11753;43.144;24.714;2023-04-22T00:54:07;99268.09;;;11.48;100.00
23170;BME280;11753;43.144;24.714;2023-04-22T00:55:08;99279.97;;;11.44;100.00
23170;BME280;11753;43.144;24.714;2023-04-22T00:56:10;99271.91;;;11.38;100.00
23170;BME280;11753;43.144;24.714;2023-04-22T00:57:11;99270.41;;;11.35;100.00
23170;BME280;11753;43.144;24.714;2023-04-22T00:58:12;99269.75;;;11.41;100.00
23170;BME280;11753;43.144;24.714;2023-04-22T00:59:13;99269.56;;;11.43;100.00
23170;BME280;11753;43.144;24.714;2023-04-22T01:00:15;99268.09;;;11.40;100.00
23170;BME280;11753;43.144;24.714;2023-04-22T01:01:15;99262.84;;;11.40;100.00
23170;BME280;11753;43.144;24.714;2023-04-22T01:02:17;99265.81;;;11.45;100.00
23170;BME280;11753;43.144;24.714;2023-04-22T01:03:19;99267.28;;;11.40;100.00
23170;BME280;11753;43.144;24.714;2023-04-22T01:04:22;99264.19;;;11.36;100.00
23170;BME280;11753;43.144;24.714;2023-04-22T01:05:24;99256.28;;;11.36;100.00
23170;BME280;11753;43.144;24.714;2023-04-22T01:06:28;99254.59;;;11.35;100.00
23170;BME280;11753;43.144;24.714;2023-04-22T01:07:31;99258.56;;;11.31;100.00
23170;BME280;11753;43.144;24.714;2023-04-22T01:08:33;99261.53;;;11.28;100.00
23170;BME280;11753;43.144;24.714;2023-04-22T01:09:35;99250.97;;;11.28;100.00
23170;BME280;11753;43.144;24.714;2023-04-22T01:10:36;99265.16;;;11.19;100.00
23170;BME280;11753;43.144;24.714;2023-04-22T01:11:37;99264.81;;;11.14;100.00
23170;BME280;11753;43.144;24.714;2023-04-22T01:12:38;99256.25;;;11.20;100.00
23170;BME280;11753;43.144;24.714;2023-04-22T01:13:38;99261.22;;;11.23;100.00
23170;BME280;11753;43.144;24.714;2023-04-22T01:14:40;99260.88;;;11.26;100.00
23170;BME280;11753;43.144;24.714;2023-04-22T01:15:41;99256.75;;;11.32;100.00
23170;BME280;11753;43.144;24.714;2023-04-22T01:16:42;99253.63;;;11.28;100.00
23170;BME280;11753;43.144;24.714;2023-04-22T01:17:44;99259.88;;;11.35;100.00
23170;BME280;11753;43.144;24.714;2023-04-22T01:18:45;99264.00;;;11.38;100.00
23170;BME280;11753;43.144;24.714;2023-04-22T01:19:47;99264.66;;;11.40;100.00
23170;BME280;11753;43.144;24.714;2023-04-22T01:20:48;99257.56;;;11.40;100.00
23170;BME280;11753;43.144;24.714;2023-04-22T01:21:52;99256.75;;;11.40;100.00
23170;BME280;11753;43.144;24.714;2023-04-22T01:22:55;99266.47;;;11.39;100.00
23170;BME280;11753;43.144;24.714;2023-04-22T01:24:00;99261.66;;;11.43;100.00
23170;BME280;11753;43.144;24.714;2023-04-22T01:25:01;99257.91;;;11.45;100.00
23170;BME280;11753;43.144;24.714;2023-04-22T01:26:03;99258.53;;;11.47;100.00
23170;BME280;11753;43.144;24.714;2023-04-22T01:27:04;99264.47;;;11.49;100.00
23170;BME280;11753;43.144;24.714;2023-04-22T01:28:05;99258.53;;;11.47;100.00
23170;BME280;11753;43.144;24.714;2023-04-22T01:29:06;99262.81;;;11.48;100.00
23170;BME280;11753;43.144;24.714;2023-04-22T01:30:08;99260.34;;;11.47;100.00
23170;BME280;11753;43.144;24.714;2023-04-22T01:31:10;99260.84;;;11.42;100.00
23170;BME280;11753;43.144;24.714;2023-04-22T01:32:12;99253.28;;;11.39;100.00
23170;BME280;11753;43.144;24.714;2023-04-22T01:33:14;99255.56;;;11.42;100.00
23170;BME280;11753;43.144;24.714;2023-04-22T01:34:15;99258.88;;;11.44;100.00
23170;BME280;11753;43.144;24.714;2023-04-22T01:35:16;99258.38;;;11.49;100.00
23170;BME280;11753;43.144;24.714;2023-04-22T01:36:17;99252.09;;;11.50;100.00
23170;BME280;11753;43.144;24.714;2023-04-22T01:37:18;99254.59;;;11.51;100.00
23170;BME280;11753;43.144;24.714;2023-04-22T01:38:19;99254.59;;;11.51;100.00
23170;BME280;11753;43.144;24.714;2023-04-22T01:39:20;99261.50;;;11.52;100.00
23170;BME280;11753;43.144;24.714;2023-04-22T01:40:22;99264.78;;;11.54;100.00
23170;BME280;11753;43.144;24.714;2023-04-22T01:41:24;99264.78;;;11.54;100.00
23170;BME280;11753;43.144;24.714;2023-04-22T01:42:25;99265.28;;;11.50;100.00
23170;BME280;11753;43.144;24.714;2023-04-22T01:43:26;99265.97;;;11.52;100.00
23170;BME280;11753;43.144;24.714;2023-04-22T01:44:27;99270.88;;;11.55;100.00
23170;BME280;11753;43.144;24.714;2023-04-22T01:45:28;99262.31;;;11.53;100.00
23170;BME280;11753;43.144;24.714;2023-04-22T01:46:29;99262.81;;;11.56;100.00
23170;BME280;11753;43.144;24.714;2023-04-22T01:47:30;99265.81;;;11.45;100.00
23170;BME280;11753;43.144;24.714;2023-04-22T01:48:31;99261.53;;;11.44;100.00
23170;BME280;11753;43.144;24.714;2023-04-22T01:49:32;99259.53;;;11.46;100.00
23170;BME280;11753;43.144;24.714;2023-04-22T01:50:33;99266.81;;;11.44;100.00
23170;BME280;11753;43.144;24.714;2023-04-22T01:51:34;99265.63;;;11.47;100.00
23170;BME280;11753;43.144;24.714;2023-04-22T01:52:35;99262.00;;;11.48;100.00
23170;BME280;11753;43.144;24.714;2023-04-22T01:53:36;99267.44;;;11.46;100.00
23170;BME280;11753;43.144;24.714;2023-04-22T01:54:37;99265.31;;;11.42;100.00
23170;BME280;11753;43.144;24.714;2023-04-22T01:55:38;99264.19;;;11.36;100.00
23170;BME280;11753;43.144;24.714;2023-04-22T01:56:39;99267.63;;;11.37;100.00
23170;BME280;11753;43.144;24.714;2023-04-22T01:57:41;99276.03;;;11.32;100.00
23170;BME280;11753;43.144;24.714;2023-04-22T01:58:42;99291.84;;;11.32;100.00
23170;BME280;11753;43.144;24.714;2023-04-22T01:59:43;99302.22;;;11.25;100.00
23170;BME280;11753;43.144;24.714;2023-04-22T02:00:46;99304.50;;;11.04;100.00
23170;BME280;11753;43.144;24.714;2023-04-22T02:01:47;99304.03;;;11.09;100.00
23170;BME280;11753;43.144;24.714;2023-04-22T02:02:48;99304.03;;;11.00;100.00
23170;BME280;11753;43.144;24.714;2023-04-22T02:03:49;99295.78;;;10.95;100.00
23170;BME280;11753;43.144;24.714;2023-04-22T02:04:50;99291.81;;;10.99;100.00
23170;BME280;11753;43.144;24.714;2023-04-22T02:05:51;99292.81;;;10.98;100.00
23170;BME280;11753;43.144;24.714;2023-04-22T02:06:52;99295.78;;;10.95;100.00
23170;BME280;11753;43.144;24.714;2023-04-22T02:07:53;99297.09;;;10.99;100.00
23170;BME280;11753;43.144;24.714;2023-04-22T02:08:54;99285.25;;;10.95;100.00
23170;BME280;11753;43.144;24.714;2023-04-22T02:09:55;99287.53;;;10.98;100.00
23170;BME280;11753;43.144;24.714;2023-04-22T02:10:56;99282.63;;;11.03;100.00
23170;BME280;11753;43.144;24.714;2023-04-22T02:11:57;99277.69;;;11.00;100.00
23170;BME280;11753;43.144;24.714;2023-04-22T02:12:58;99276.19;;;11.06;100.00
23170;BME280;11753;43.144;24.714;2023-04-22T02:13:59;99288.22;;;11.09;100.00
23170;BME280;11753;43.144;24.714;2023-04-22T02:15:00;99281.97;;;11.10;100.00
23170;BME280;11753;43.144;24.714;2023-04-22T02:16:01;99279.50;;;11.08;100.00
23170;BME280;11753;43.144;24.714;2023-04-22T02:17:02;99282.28;;;11.07;100.00
23170;BME280;11753;43.144;24.714;2023-04-22T02:18:04;99282.63;;;11.03;100.00
23170;BME280;11753;43.144;24.714;2023-04-22T02:19:05;99284.44;;;11.11;100.00
23170;BME280;11753;43.144;24.714;2023-04-22T02:20:07;99283.28;;;11.14;100.00
23170;BME280;11753;43.144;24.714;2023-04-22T02:21:10;99282.28;;;11.07;100.00
23170;BME280;11753;43.144;24.714;2023-04-22T02:22:14;99288.53;;;10.97;100.00
23170;BME280;11753;43.144;24.714;2023-04-22T02:23:15;99287.53;;;10.90;100.00
23170;BME280;11753;43.144;24.714;2023-04-22T02:24:16;99283.91;;;10.91;100.00
23170;BME280;11753;43.144;24.714;2023-04-22T02:25:17;99283.59;;;10.86;100.00
23170;BME280;11753;43.144;24.714;2023-04-22T02:26:18;99284.72;;;10.75;100.00
23170;BME280;11753;43.144;24.714;2023-04-22T02:27:18;99285.84;;;10.57;100.00
23170;BME280;11753;43.144;24.714;2023-04-22T02:28:19;99295.41;;;10.66;100.00
23170;BME280;11753;43.144;24.714;2023-04-22T02:29:20;99295.44;;;10.74;100.00
23170;BME280;11753;43.144;24.714;2023-04-22T02:30:21;99293.53;;;10.50;100.00
23170;BME280;11753;43.144;24.714;2023-04-22T02:31:21;99301.31;;;10.60;100.00
23170;BME280;11753;43.144;24.714;2023-04-22T02:32:22;99296.06;;;10.60;100.00
23170;BME280;11753;43.144;24.714;2023-04-22T02:33:23;99299.63;;;10.42;100.00
23170;BME280;11753;43.144;24.714;2023-04-22T02:34:24;99295.69;;;10.46;100.00
23170;BME280;11753;43.144;24.714;2023-04-22T02:35:25;99295.34;;;10.50;100.00
23170;BME280;11753;43.144;24.714;2023-04-22T02:36:25;99298.34;;;10.55;100.00
23170;BME280;11753;43.144;24.714;2023-04-22T02:37:27;99303.97;;;10.60;100.00
23170;BME280;11753;43.144;24.714;2023-04-22T02:38:28;99298.03;;;10.58;100.00
23170;BME280;11753;43.144;24.714;2023-04-22T02:39:28;99296.88;;;10.60;100.00
23170;BME280;11753;43.144;24.714;2023-04-22T02:40:29;99301.81;;;10.63;100.00
23170;BME280;11753;43.144;24.714;2023-04-22T02:41:31;99291.28;;;10.63;100.00
23170;BME280;11753;43.144;24.714;2023-04-22T02:42:32;99292.78;;;10.66;100.00
23170;BME280;11753;43.144;24.714;2023-04-22T02:43:33;99295.41;;;10.66;100.00
23170;BME280;11753;43.144;24.714;2023-04-22T02:44:34;99295.72;;;10.63;100.00
23170;BME280;11753;43.144;24.714;2023-04-22T02:45:34;99290.00;;;10.67;100.00
23170;BME280;11753;43.144;24.714;2023-04-22T02:46:35;99300.03;;;10.72;100.00
23170;BME280;11753;43.144;24.714;2023-04-22T02:47:39;99303.81;;;10.69;100.00
23170;BME280;11753;43.144;24.714;2023-04-22T02:48:41;99306.25;;;10.63;100.00
23170;BME280;11753;43.144;24.714;2023-04-22T02:49:42;99295.72;;;10.63;100.00
23170;BME280;11753;43.144;24.714;2023-04-22T02:50:43;99302.97;;;10.61;100.00
23170;BME280;11753;43.144;24.714;2023-04-22T02:51:44;99305.09;;;10.57;100.00
23170;BME280;11753;43.144;24.714;2023-04-22T02:52:45;99302.44;;;10.49;100.00
23170;BME280;11753;43.144;24.714;2023-04-22T02:53:46;99297.97;;;10.41;100.00
23170;BME280;11753;43.144;24.714;2023-04-22T02:54:47;99310.97;;;9.75;100.00
23170;BME280;11753;43.144;24.714;2023-04-22T02:55:48;99308.19;;;9.50;100.00
23170;BME280;11753;43.144;24.714;2023-04-22T02:56:49;99311.06;;;9.65;100.00
23170;BME280;11753;43.144;24.714;2023-04-22T02:57:50;99302.41;;;9.73;100.00
23170;BME280;11753;43.144;24.714;2023-04-22T02:58:51;99314.47;;;9.83;100.00
23170;BME280;11753;43.144;24.714;2023-04-22T02:59:52;99312.34;;;9.87;100.00
23170;BME280;11753;43.144;24.714;2023-04-22T03:00:53;99310.38;;;9.89;100.00
23170;BME280;11753;43.144;24.714;2023-04-22T03:01:56;99310.75;;;9.94;100.00
23170;BME280;11753;43.144;24.714;2023-04-22T03:02:56;99312.69;;;9.92;100.00
23170;BME280;11753;43.144;24.714;2023-04-22T03:03:57;99317.84;;;10.02;100.00
23170;BME280;11753;43.144;24.714;2023-04-22T03:04:58;99320.13;;;9.97;100.00
23170;BME280;11753;43.144;24.714;2023-04-22T03:06:00;99314.47;;;9.83;100.00
23170;BME280;11753;43.144;24.714;2023-04-22T03:07:01;99311.47;;;9.78;100.00
23170;BME280;11753;43.144;24.714;2023-04-22T03:08:02;99316.72;;;9.78;100.00
23170;BME280;11753;43.144;24.714;2023-04-22T03:09:03;99313.47;;;9.84;100.00
23170;BME280;11753;43.144;24.714;2023-04-22T03:10:04;99307.91;;;9.87;100.00
23170;BME280;11753;43.144;24.714;2023-04-22T03:11:06;99307.09;;;9.87;100.00
23170;BME280;11753;43.144;24.714;2023-04-22T03:12:07;99310.53;;;9.87;100.00
23170;BME280;11753;43.144;24.714;2023-04-22T03:13:08;99302.16;;;9.92;100.00
23170;BME280;11753;43.144;24.714;2023-04-22T03:14:09;99311.56;;;9.95;100.00
23170;BME280;11753;43.144;24.714;2023-04-22T03:15:10;99310.25;;;9.99;100.00
23170;BME280;11753;43.144;24.714;2023-04-22T03:16:11;99300.72;;;9.98;100.00
23170;BME280;11753;43.144;24.714;2023-04-22T03:17:12;99304.69;;;10.02;100.00
23170;BME280;11753;43.144;24.714;2023-04-22T03:18:13;99312.06;;;9.98;100.00
23170;BME280;11753;43.144;24.714;2023-04-22T03:19:14;99318.28;;;9.89;100.00
23170;BME280;11753;43.144;24.714;2023-04-22T03:20:15;99318.28;;;9.89;100.00
23170;BME280;11753;43.144;24.714;2023-04-22T03:21:16;99320.03;;;9.80;100.00
23170;BME280;11753;43.144;24.714;2023-04-22T03:22:17;99317.56;;;9.79;100.00
23170;BME280;11753;43.144;24.714;2023-04-22T03:23:17;99322.19;;;9.85;100.00
23170;BME280;11753;43.144;24.714;2023-04-22T03:24:18;99327.38;;;9.77;100.00
23170;BME280;11753;43.144;24.714;2023-04-22T03:25:18;99317.66;;;9.69;100.00
23170;BME280;11753;43.144;24.714;2023-04-22T03:26:19;99325.47;;;9.79;100.00
23170;BME280;11753;43.144;24.714;2023-04-22T03:27:20;99328.59;;;9.82;100.00
23170;BME280;11753;43.144;24.714;2023-04-22T03:28:20;99331.75;;;9.86;100.00
23170;BME280;11753;43.144;24.714;2023-04-22T03:29:21;99331.25;;;9.90;100.00
23170;BME280;11753;43.144;24.714;2023-04-22T03:30:22;99333.59;;;9.93;100.00
23170;BME280;11753;43.144;24.714;2023-04-22T03:31:23;99334.25;;;9.96;100.00
23170;BME280;11753;43.144;24.714;2023-04-22T03:32:24;99331.28;;;9.99;100.00
23170;BME280;11753;43.144;24.714;2023-04-22T03:33:25;99320.13;;;9.97;100.00
23170;BME280;11753;43.144;24.714;2023-04-22T03:34:27;99328.66;;;9.99;100.00
23170;BME280;11753;43.144;24.714;2023-04-22T03:35:28;99324.44;;;10.06;100.00
23170;BME280;11753;43.144;24.714;2023-04-22T03:36:29;99323.44;;;10.07;100.00
23170;BME280;11753;43.144;24.714;2023-04-22T03:37:30;99326.06;;;10.07;100.00
23170;BME280;11753;43.144;24.714;2023-04-22T03:38:31;99330.72;;;10.13;100.00
23170;BME280;11753;43.144;24.714;2023-04-22T03:39:32;99335.63;;;10.08;100.00
23170;BME280;11753;43.144;24.714;2023-04-22T03:40:33;99328.56;;;10.08;100.00
23170;BME280;11753;43.144;24.714;2023-04-22T03:41:34;99328.25;;;10.11;100.00
23170;BME280;11753;43.144;24.714;2023-04-22T03:42:35;99325.00;;;10.17;100.00
23170;BME280;11753;43.144;24.714;2023-04-22T03:43:36;99328.97;;;10.22;100.00
23170;BME280;11753;43.144;24.714;2023-04-22T03:44:37;99329.66;;;10.24;100.00
23170;BME280;11753;43.144;24.714;2023-04-22T03:45:37;99328.22;;;10.29;100.00
23170;BME280;11753;43.144;24.714;2023-04-22T03:46:38;99331.50;;;10.31;100.00
23170;BME280;11753;43.144;24.714;2023-04-22T03:47:39;99331.84;;;10.36;100.00
23170;BME280;11753;43.144;24.714;2023-04-22T03:48:40;99332.19;;;10.41;100.00
23170;BME280;11753;43.144;24.714;2023-04-22T03:49:41;99333.16;;;10.40;100.00
23170;BME280;11753;43.144;24.714;2023-04-22T03:50:42;99334.00;;;10.41;100.00
23170;BME280;11753;43.144;24.714;2023-04-22T03:51:43;99334.81;;;10.41;100.00
23170;BME280;11753;43.144;24.714;2023-04-22T03:52:44;99330.06;;;10.45;100.00
23170;BME280;11753;43.144;24.714;2023-04-22T03:53:45;99331.53;;;10.47;100.00
23170;BME280;11753;43.144;24.714;2023-04-22T03:54:46;99336.16;;;10.45;100.00
23170;BME280;11753;43.144;24.714;2023-04-22T03:55:47;99341.91;;;10.49;100.00
23170;BME280;11753;43.144;24.714;2023-04-22T03:56:47;99337.78;;;10.46;100.00
23170;BME280;11753;43.144;24.714;2023-04-22T03:57:48;99349.94;;;10.39;100.00
23170;BME280;11753;43.144;24.714;2023-04-22T03:58:50;99338.44;;;10.40;100.00
23170;BME280;11753;43.144;24.714;2023-04-22T03:59:50;99336.00;;;10.47;100.00
23170;BME280;11753;43.144;24.714;2023-04-22T04:00:51;99341.41;;;10.45;100.00
23170;BME280;11753;43.144;24.714;2023-04-22T04:01:52;99345.34;;;10.50;100.00
23170;BME280;11753;43.144;24.714;2023-04-22T04:02:53;99342.25;;;10.54;100.00
23170;BME280;11753;43.144;24.714;2023-04-22T04:03:53;99348.00;;;10.50;100.00
23170;BME280;11753;43.144;24.714;2023-04-22T04:04:54;99347.69;;;10.53;100.00
23170;BME280;11753;43.144;24.714;2023-04-22T04:05:55;99345.06;;;10.53;100.00
23170;BME280;11753;43.144;24.714;2023-04-22T04:06:56;99343.56;;;10.50;100.00
23170;BME280;11753;43.144;24.714;2023-04-22T04:07:57;99356.56;;;10.52;100.00
23170;BME280;11753;43.144;24.714;2023-04-22T04:08:58;99342.44;;;10.53;100.00
23170;BME280;11753;43.144;24.714;2023-04-22T04:09:59;99353.59;;;10.55;100.00
23170;BME280;11753;43.144;24.714;2023-04-22T04:11:00;99358.91;;;10.63;100.00
23170;BME280;11753;43.144;24.714;2023-04-22T04:12:00;99363.84;;;10.66;100.00
23170;BME280;11753;43.144;24.714;2023-04-22T04:13:02;99363.53;;;10.69;100.00
23170;BME280;11753;43.144;24.714;2023-04-22T04:14:04;99360.59;;;10.72;100.00
23170;BME280;11753;43.144;24.714;2023-04-22T04:15:05;99369.16;;;10.74;100.00
23170;BME280;11753;43.144;24.714;2023-04-22T04:16:06;99361.59;;;10.79;100.00
23170;BME280;11753;43.144;24.714;2023-04-22T04:17:07;99364.53;;;10.76;100.00
23170;BME280;11753;43.144;24.714;2023-04-22T04:18:09;99367.19;;;10.84;100.00
23170;BME280;11753;43.144;24.714;2023-04-22T04:19:11;99365.25;;;10.86;100.00
23170;BME280;11753;43.144;24.714;2023-04-22T04:20:12;99368.34;;;10.90;100.00
23170;BME280;11753;43.144;24.714;2023-04-22T04:21:13;99375.44;;;10.89;100.00
23170;BME280;11753;43.144;24.714;2023-04-22T04:22:14;99369.84;;;10.92;100.00
23170;BME280;11753;43.144;24.714;2023-04-22T04:23:16;99368.19;;;10.99;100.00
23170;BME280;11753;43.144;24.714;2023-04-22T04:24:17;99370.53;;;11.02;100.00
23170;BME280;11753;43.144;24.714;2023-04-22T04:25:18;99370.53;;;11.02;100.00
23170;BME280;11753;43.144;24.714;2023-04-22T04:26:20;99372.00;;;11.05;100.00
23170;BME280;11753;43.144;24.714;2023-04-22T04:27:22;99370.84;;;10.99;100.00
23170;BME280;11753;43.144;24.714;2023-04-22T04:28:23;99379.56;;;11.00;100.00
23170;BME280;11753;43.144;24.714;2023-04-22T04:29:24;99376.63;;;11.03;100.00
23170;BME280;11753;43.144;24.714;2023-04-22T04:30:26;99378.25;;;10.96;100.00
23170;BME280;11753;43.144;24.714;2023-04-22T04:31:27;99377.59;;;10.94;100.00
23170;BME280;11753;43.144;24.714;2023-04-22T04:32:28;99382.03;;;10.93;100.00
23170;BME280;11753;43.144;24.714;2023-04-22T04:33:34;99379.41;;;11.01;100.00
23170;BME280;11753;43.144;24.714;2023-04-22T04:34:36;99377.94;;;11.07;100.00
23170;BME280;11753;43.144;24.714;2023-04-22T04:35:38;99377.94;;;11.07;100.00
23170;BME280;11753;43.144;24.714;2023-04-22T04:36:39;99376.81;;;11.18;100.00
23170;BME280;11753;43.144;24.714;2023-04-22T04:37:42;99382.06;;;11.18;100.00
23170;BME280;11753;43.144;24.714;2023-04-22T04:38:43;99381.41;;;11.16;100.00
23170;BME280;11753;43.144;24.714;2023-04-22T04:39:43;99380.09;;;11.20;100.00
23170;BME280;11753;43.144;24.714;2023-04-22T04:40:44;99373.66;;;11.14;100.00
23170;BME280;11753;43.144;24.714;2023-04-22T04:41:45;99370.38;;;11.12;100.00
23170;BME280;11753;43.144;24.714;2023-04-22T04:42:49;99376.81;;;11.18;100.00
23170;BME280;11753;43.144;24.714;2023-04-22T04:43:52;99371.19;;;11.13;100.00
23170;BME280;11753;43.144;24.714;2023-04-22T04:44:54;99371.38;;;11.19;100.00
23170;BME280;11753;43.144;24.714;2023-04-22T04:45:58;99377.16;;;11.23;100.00
23170;BME280;11753;43.144;24.714;2023-04-22T04:46:59;99369.56;;;11.28;100.00
23170;BME280;11753;43.144;24.714;2023-04-22T04:48:00;99372.38;;;11.35;100.00
23170;BME280;11753;43.144;24.714;2023-04-22T04:49:02;99371.38;;;11.36;100.00
23170;BME280;11753;43.144;24.714;2023-04-22T04:50:04;99367.59;;;11.38;100.00
23170;BME280;11753;43.144;24.714;2023-04-22T04:51:07;99362.50;;;11.37;100.00
23170;BME280;11753;43.144;24.714;2023-04-22T04:52:08;99365.63;;;11.32;100.00
23170;BME280;11753;43.144;24.714;2023-04-22T04:53:11;99362.97;;;11.40;100.00
23170;BME280;11753;43.144;24.714;2023-04-22T04:54:12;99370.25;;;11.38;100.00
23170;BME280;11753;43.144;24.714;2023-04-22T04:55:14;99365.31;;;11.43;100.00
23170;BME280;11753;43.144;24.714;2023-04-22T04:56:15;99372.53;;;11.49;100.00
23170;BME280;11753;43.144;24.714;2023-04-22T04:57:16;99368.06;;;11.50;100.00
23170;BME280;11753;43.144;24.714;2023-04-22T04:58:16;99367.25;;;11.49;100.00
23170;BME280;11753;43.144;24.714;2023-04-22T04:59:17;99369.41;;;11.54;100.00
23170;BME280;11753;43.144;24.714;2023-04-22T05:00:18;99369.91;;;11.57;100.00
23170;BME280;11753;43.144;24.714;2023-04-22T05:01:19;99363.50;;;11.52;100.00
23170;BME280;11753;43.144;24.714;2023-04-22T05:02:20;99377.66;;;11.51;100.00
23170;BME280;11753;43.144;24.714;2023-04-22T05:03:21;99375.03;;;11.59;100.00
23170;BME280;11753;43.144;24.714;2023-04-22T05:04:22;99374.19;;;11.58;100.00
23170;BME280;11753;43.144;24.714;2023-04-22T05:05:23;99375.84;;;11.60;100.00
23170;BME280;11753;43.144;24.714;2023-04-22T05:06:24;99382.09;;;11.67;100.00
23170;BME280;11753;43.144;24.714;2023-04-22T05:07:26;99378.13;;;11.71;100.00
23170;BME280;11753;43.144;24.714;2023-04-22T05:08:27;99382.09;;;11.75;100.00
23170;BME280;11753;43.144;24.714;2023-04-22T05:09:28;99377.97;;;11.72;100.00
23170;BME280;11753;43.144;24.714;2023-04-22T05:10:29;99381.09;;;11.68;100.00
23170;BME280;11753;43.144;24.714;2023-04-22T05:11:30;99379.78;;;11.72;100.00
23170;BME280;11753;43.144;24.714;2023-04-22T05:12:31;99382.91;;;11.75;100.00
23170;BME280;11753;43.144;24.714;2023-04-22T05:13:32;99387.00;;;11.78;100.00
23170;BME280;11753;43.144;24.714;2023-04-22T05:14:33;99392.00;;;11.81;100.00
23170;BME280;11753;43.144;24.714;2023-04-22T05:15:34;99384.06;;;11.89;100.00